sensor_id;sensor_type;location;lat;lon;timestamp;P1;durP1;ratioP1;P2;durP2;ratioP2
75930;SDS011;64609;47.052;15.462;2023-09-07T00:00:12;9.75;;;4.75;;
75930;SDS011;64609;47.052;15.462;2023-09-07T00:02:38;7.10;;;4.68;;
75930;SDS011;64609;47.052;15.462;2023-09-07T00:05:05;5.97;;;4.60;;
75930;SDS011;64609;47.052;15.462;2023-09-07T00:07:32;5.43;;;4.40;;
75930;SDS011;64609;47.052;15.462;2023-09-07T00:09:57;5.03;;;4.45;;
75930;SDS011;64609;47.052;15.462;2023-09-07T00:12:23;10.18;;;4.35;;
75930;SDS011;64609;47.052;15.462;2023-09-07T00:14:49;8.35;;;4.50;;
75930;SDS011;64609;47.052;15.462;2023-09-07T00:17:14;6.63;;;4.28;;
75930;SDS011;64609;47.052;15.462;2023-09-07T00:19:40;8.15;;;4.90;;
75930;SDS011;64609;47.052;15.462;2023-09-07T00:22:05;5.90;;;4.30;;
75930;SDS011;64609;47.052;15.462;2023-09-07T00:24:31;5.75;;;4.57;;
75930;SDS011;64609;47.052;15.462;2023-09-07T00:26:57;8.00;;;4.95;;
75930;SDS011;64609;47.052;15.462;2023-09-07T00:29:23;4.70;;;4.25;;
75930;SDS011;64609;47.052;15.462;2023-09-07T00:31:49;5.38;;;4.57;;
75930;SDS011;64609;47.052;15.462;2023-09-07T00:34:14;10.85;;;4.45;;
75930;SDS011;64609;47.052;15.462;2023-09-07T00:36:40;7.60;;;4.70;;
75930;SDS011;64609;47.052;15.462;2023-09-07T00:39:05;9.15;;;5.03;;
75930;SDS011;64609;47.052;15.462;2023-09-07T00:41:31;5.30;;;4.22;;
75930;SDS011;64609;47.052;15.462;2023-09-07T00:43:57;5.90;;;4.63;;
75930;SDS011;64609;47.052;15.462;2023-09-07T00:46:22;5.80;;;4.47;;
75930;SDS011;64609;47.052;15.462;2023-09-07T00:48:48;6.38;;;4.70;;
75930;SDS011;64609;47.052;15.462;2023-09-07T00:51:15;5.85;;;4.50;;
75930;SDS011;64609;47.052;15.462;2023-09-07T00:53:40;4.88;;;4.25;;
75930;SDS011;64609;47.052;15.462;2023-09-07T00:56:06;7.03;;;4.63;;
75930;SDS011;64609;47.052;15.462;2023-09-07T00:58:32;6.50;;;5.05;;
75930;SDS011;64609;47.052;15.462;2023-09-07T01:00:59;7.35;;;4.60;;
75930;SDS011;64609;47.052;15.462;2023-09-07T01:03:25;11.48;;;4.68;;
75930;SDS011;64609;47.052;15.462;2023-09-07T01:05:52;7.90;;;4.88;;
75930;SDS011;64609;47.052;15.462;2023-09-07T01:08:29;5.25;;;4.70;;
75930;SDS011;64609;47.052;15.462;2023-09-07T01:11:00;7.32;;;4.57;;
75930;SDS011;64609;47.052;15.462;2023-09-07T01:13:26;9.20;;;4.97;;
75930;SDS011;64609;47.052;15.462;2023-09-07T01:15:51;6.28;;;4.70;;
75930;SDS011;64609;47.052;15.462;2023-09-07T01:18:17;5.93;;;4.72;;
75930;SDS011;64609;47.052;15.462;2023-09-07T01:20:44;8.00;;;4.43;;
75930;SDS011;64609;47.052;15.462;2023-09-07T01:23:12;6.70;;;4.65;;
75930;SDS011;64609;47.052;15.462;2023-09-07T01:25:39;6.88;;;4.72;;
75930;SDS011;64609;47.052;15.462;2023-09-07T01:28:06;7.13;;;4.63;;
75930;SDS011;64609;47.052;15.462;2023-09-07T01:30:34;7.47;;;4.75;;
75930;SDS011;64609;47.052;15.462;2023-09-07T01:33:02;7.63;;;4.30;;
75930;SDS011;64609;47.052;15.462;2023-09-07T01:35:28;6.57;;;4.88;;
75930;SDS011;64609;47.052;15.462;2023-09-07T01:37:54;7.95;;;4.65;;
75930;SDS011;64609;47.052;15.462;2023-09-07T01:40:20;5.85;;;5.07;;
75930;SDS011;64609;47.052;15.462;2023-09-07T01:42:45;7.00;;;4.85;;
75930;SDS011;64609;47.052;15.462;2023-09-07T01:45:11;5.38;;;4.72;;
75930;SDS011;64609;47.052;15.462;2023-09-07T01:47:36;5.47;;;4.85;;
75930;SDS011;64609;47.052;15.462;2023-09-07T01:50:02;8.35;;;4.63;;
75930;SDS011;64609;47.052;15.462;2023-09-07T01:52:28;6.38;;;5.05;;
75930;SDS011;64609;47.052;15.462;2023-09-07T01:54:55;6.00;;;4.90;;
75930;SDS011;64609;47.052;15.462;2023-09-07T01:57:21;6.50;;;4.65;;
75930;SDS011;64609;47.052;15.462;2023-09-07T01:59:46;6.43;;;4.75;;
75930;SDS011;64609;47.052;15.462;2023-09-07T02:02:13;6.22;;;4.63;;
75930;SDS011;64609;47.052;15.462;2023-09-07T02:04:39;10.00;;;4.85;;
75930;SDS011;64609;47.052;15.462;2023-09-07T02:07:05;6.75;;;4.53;;
75930;SDS011;64609;47.052;15.462;2023-09-07T02:09:31;6.47;;;5.10;;
75930;SDS011;64609;47.052;15.462;2023-09-07T02:11:57;5.10;;;4.60;;
75930;SDS011;64609;47.052;15.462;2023-09-07T02:14:23;6.85;;;4.75;;
75930;SDS011;64609;47.052;15.462;2023-09-07T02:16:48;6.40;;;5.13;;
75930;SDS011;64609;47.052;15.462;2023-09-07T02:19:14;8.10;;;4.82;;
75930;SDS011;64609;47.052;15.462;2023-09-07T02:21:40;5.72;;;5.13;;
75930;SDS011;64609;47.052;15.462;2023-09-07T02:24:05;7.28;;;5.40;;
75930;SDS011;64609;47.052;15.462;2023-09-07T02:26:31;7.75;;;5.22;;
75930;SDS011;64609;47.052;15.462;2023-09-07T02:28:57;6.68;;;5.03;;
75930;SDS011;64609;47.052;15.462;2023-09-07T02:31:22;7.90;;;5.05;;
75930;SDS011;64609;47.052;15.462;2023-09-07T02:33:48;10.10;;;5.97;;
75930;SDS011;64609;47.052;15.462;2023-09-07T02:36:14;7.10;;;5.55;;
75930;SDS011;64609;47.052;15.462;2023-09-07T02:38:39;5.38;;;4.70;;
75930;SDS011;64609;47.052;15.462;2023-09-07T02:41:05;6.88;;;5.00;;
75930;SDS011;64609;47.052;15.462;2023-09-07T02:43:31;6.18;;;5.18;;
75930;SDS011;64609;47.052;15.462;2023-09-07T02:45:56;6.15;;;4.82;;
75930;SDS011;64609;47.052;15.462;2023-09-07T02:48:22;7.80;;;5.40;;
75930;SDS011;64609;47.052;15.462;2023-09-07T02:50:48;8.48;;;5.50;;
75930;SDS011;64609;47.052;15.462;2023-09-07T02:53:15;7.50;;;5.10;;
75930;SDS011;64609;47.052;15.462;2023-09-07T02:55:41;8.30;;;5.43;;
75930;SDS011;64609;47.052;15.462;2023-09-07T02:58:07;8.63;;;5.43;;
75930;SDS011;64609;47.052;15.462;2023-09-07T03:00:32;8.25;;;5.57;;
75930;SDS011;64609;47.052;15.462;2023-09-07T03:02:59;8.75;;;5.10;;
75930;SDS011;64609;47.052;15.462;2023-09-07T03:05:26;7.00;;;5.75;;
75930;SDS011;64609;47.052;15.462;2023-09-07T03:07:53;8.55;;;5.35;;
75930;SDS011;64609;47.052;15.462;2023-09-07T03:10:19;10.25;;;5.70;;
75930;SDS011;64609;47.052;15.462;2023-09-07T03:12:44;7.90;;;5.28;;
75930;SDS011;64609;47.052;15.462;2023-09-07T03:15:10;8.60;;;5.50;;
75930;SDS011;64609;47.052;15.462;2023-09-07T03:17:37;7.28;;;5.05;;
75930;SDS011;64609;47.052;15.462;2023-09-07T03:20:02;6.70;;;5.68;;
75930;SDS011;64609;47.052;15.462;2023-09-07T03:22:44;8.10;;;6.00;;
75930;SDS011;64609;47.052;15.462;2023-09-07T03:25:10;7.68;;;5.60;;
75930;SDS011;64609;47.052;15.462;2023-09-07T03:27:36;6.75;;;5.40;;
75930;SDS011;64609;47.052;15.462;2023-09-07T03:30:04;8.45;;;6.03;;
75930;SDS011;64609;47.052;15.462;2023-09-07T03:32:31;9.35;;;5.60;;
75930;SDS011;64609;47.052;15.462;2023-09-07T03:34:58;8.73;;;5.55;;
75930;SDS011;64609;47.052;15.462;2023-09-07T03:37:25;8.25;;;5.82;;
75930;SDS011;64609;47.052;15.462;2023-09-07T03:39:57;10.18;;;6.05;;
75930;SDS011;64609;47.052;15.462;2023-09-07T03:42:23;9.93;;;5.95;;
75930;SDS011;64609;47.052;15.462;2023-09-07T03:44:48;9.40;;;5.68;;
75930;SDS011;64609;47.052;15.462;2023-09-07T03:47:15;8.38;;;5.88;;
75930;SDS011;64609;47.052;15.462;2023-09-07T03:49:41;10.40;;;5.80;;
75930;SDS011;64609;47.052;15.462;2023-09-07T03:52:07;9.82;;;6.18;;
75930;SDS011;64609;47.052;15.462;2023-09-07T03:54:34;7.95;;;5.53;;
75930;SDS011;64609;47.052;15.462;2023-09-07T03:57:00;7.85;;;6.00;;
75930;SDS011;64609;47.052;15.462;2023-09-07T03:59:27;8.63;;;6.10;;
75930;SDS011;64609;47.052;15.462;2023-09-07T04:01:52;7.43;;;6.00;;
75930;SDS011;64609;47.052;15.462;2023-09-07T04:04:19;11.10;;;5.82;;
75930;SDS011;64609;47.052;15.462;2023-09-07T04:06:48;7.57;;;5.88;;
75930;SDS011;64609;47.052;15.462;2023-09-07T04:09:13;7.03;;;5.75;;
75930;SDS011;64609;47.052;15.462;2023-09-07T04:11:39;8.57;;;6.00;;
75930;SDS011;64609;47.052;15.462;2023-09-07T04:14:05;10.13;;;5.88;;
75930;SDS011;64609;47.052;15.462;2023-09-07T04:16:31;8.55;;;5.85;;
75930;SDS011;64609;47.052;15.462;2023-09-07T04:18:56;8.93;;;5.78;;
75930;SDS011;64609;47.052;15.462;2023-09-07T04:21:22;11.70;;;5.80;;
75930;SDS011;64609;47.052;15.462;2023-09-07T04:23:48;8.88;;;6.15;;
75930;SDS011;64609;47.052;15.462;2023-09-07T04:26:13;7.57;;;5.60;;
75930;SDS011;64609;47.052;15.462;2023-09-07T04:28:39;8.30;;;5.90;;
75930;SDS011;64609;47.052;15.462;2023-09-07T04:31:05;15.40;;;6.50;;
75930;SDS011;64609;47.052;15.462;2023-09-07T04:33:31;8.77;;;6.28;;
75930;SDS011;64609;47.052;15.462;2023-09-07T04:36:07;8.52;;;5.95;;
75930;SDS011;64609;47.052;15.462;2023-09-07T04:38:34;8.27;;;5.88;;
75930;SDS011;64609;47.052;15.462;2023-09-07T04:41:09;8.82;;;5.90;;
75930;SDS011;64609;47.052;15.462;2023-09-07T04:43:36;10.68;;;6.40;;
75930;SDS011;64609;47.052;15.462;2023-09-07T04:46:02;11.32;;;6.38;;
75930;SDS011;64609;47.052;15.462;2023-09-07T04:48:28;8.93;;;5.95;;
75930;SDS011;64609;47.052;15.462;2023-09-07T04:51:12;15.13;;;6.03;;
75930;SDS011;64609;47.052;15.462;2023-09-07T04:53:38;9.82;;;6.50;;
75930;SDS011;64609;47.052;15.462;2023-09-07T04:56:05;8.35;;;6.05;;
75930;SDS011;64609;47.052;15.462;2023-09-07T04:58:32;9.60;;;6.20;;
75930;SDS011;64609;47.052;15.462;2023-09-07T05:01:01;6.68;;;5.88;;
75930;SDS011;64609;47.052;15.462;2023-09-07T05:03:31;8.98;;;5.80;;
75930;SDS011;64609;47.052;15.462;2023-09-07T05:05:56;11.57;;;6.03;;
75930;SDS011;64609;47.052;15.462;2023-09-07T05:08:22;8.05;;;6.07;;
75930;SDS011;64609;47.052;15.462;2023-09-07T05:10:54;8.55;;;6.07;;
75930;SDS011;64609;47.052;15.462;2023-09-07T05:13:21;9.90;;;6.32;;
75930;SDS011;64609;47.052;15.462;2023-09-07T05:15:48;10.82;;;6.60;;
75930;SDS011;64609;47.052;15.462;2023-09-07T05:18:14;12.05;;;6.10;;
75930;SDS011;64609;47.052;15.462;2023-09-07T05:20:39;8.00;;;5.80;;
75930;SDS011;64609;47.052;15.462;2023-09-07T05:23:05;8.88;;;6.30;;
75930;SDS011;64609;47.052;15.462;2023-09-07T05:25:31;10.57;;;6.80;;
75930;SDS011;64609;47.052;15.462;2023-09-07T05:27:57;7.43;;;6.45;;
75930;SDS011;64609;47.052;15.462;2023-09-07T05:30:23;14.40;;;6.93;;
75930;SDS011;64609;47.052;15.462;2023-09-07T05:32:48;12.15;;;6.78;;
75930;SDS011;64609;47.052;15.462;2023-09-07T05:35:14;10.95;;;6.15;;
75930;SDS011;64609;47.052;15.462;2023-09-07T05:37:41;10.48;;;6.45;;
75930;SDS011;64609;47.052;15.462;2023-09-07T05:40:07;9.13;;;6.40;;
75930;SDS011;64609;47.052;15.462;2023-09-07T05:42:33;7.45;;;5.90;;
75930;SDS011;64609;47.052;15.462;2023-09-07T05:44:59;10.40;;;6.18;;
75930;SDS011;64609;47.052;15.462;2023-09-07T05:47:24;10.00;;;5.93;;
75930;SDS011;64609;47.052;15.462;2023-09-07T05:49:51;6.80;;;5.53;;
75930;SDS011;64609;47.052;15.462;2023-09-07T05:52:17;17.70;;;6.18;;
75930;SDS011;64609;47.052;15.462;2023-09-07T05:54:42;10.48;;;5.93;;
75930;SDS011;64609;47.052;15.462;2023-09-07T05:57:08;9.52;;;6.43;;
75930;SDS011;64609;47.052;15.462;2023-09-07T05:59:34;8.68;;;5.90;;
75930;SDS011;64609;47.052;15.462;2023-09-07T06:01:59;10.23;;;6.20;;
75930;SDS011;64609;47.052;15.462;2023-09-07T06:04:25;10.13;;;5.93;;
75930;SDS011;64609;47.052;15.462;2023-09-07T06:06:51;10.85;;;6.25;;
75930;SDS011;64609;47.052;15.462;2023-09-07T06:09:17;9.50;;;6.00;;
75930;SDS011;64609;47.052;15.462;2023-09-07T06:11:42;8.75;;;6.18;;
75930;SDS011;64609;47.052;15.462;2023-09-07T06:14:08;9.57;;;5.43;;
75930;SDS011;64609;47.052;15.462;2023-09-07T06:16:33;15.63;;;6.30;;
75930;SDS011;64609;47.052;15.462;2023-09-07T06:19:00;9.80;;;5.47;;
75930;SDS011;64609;47.052;15.462;2023-09-07T06:21:25;15.38;;;5.93;;
75930;SDS011;64609;47.052;15.462;2023-09-07T06:23:51;8.80;;;5.80;;
75930;SDS011;64609;47.052;15.462;2023-09-07T06:26:17;11.80;;;6.00;;
75930;SDS011;64609;47.052;15.462;2023-09-07T06:28:43;10.57;;;6.57;;
75930;SDS011;64609;47.052;15.462;2023-09-07T06:31:08;13.57;;;6.38;;
75930;SDS011;64609;47.052;15.462;2023-09-07T06:33:34;10.82;;;5.55;;
75930;SDS011;64609;47.052;15.462;2023-09-07T06:36:00;10.30;;;5.65;;
75930;SDS011;64609;47.052;15.462;2023-09-07T06:38:28;13.40;;;5.55;;
75930;SDS011;64609;47.052;15.462;2023-09-07T06:40:54;11.95;;;5.93;;
75930;SDS011;64609;47.052;15.462;2023-09-07T06:43:20;13.68;;;5.50;;
75930;SDS011;64609;47.052;15.462;2023-09-07T06:45:45;11.57;;;5.82;;
75930;SDS011;64609;47.052;15.462;2023-09-07T06:48:11;9.43;;;5.57;;
75930;SDS011;64609;47.052;15.462;2023-09-07T06:50:37;11.95;;;5.80;;
75930;SDS011;64609;47.052;15.462;2023-09-07T06:53:03;8.40;;;5.20;;
75930;SDS011;64609;47.052;15.462;2023-09-07T06:55:28;12.98;;;5.53;;
75930;SDS011;64609;47.052;15.462;2023-09-07T06:57:54;10.13;;;5.93;;
75930;SDS011;64609;47.052;15.462;2023-09-07T07:00:21;8.82;;;5.30;;
75930;SDS011;64609;47.052;15.462;2023-09-07T07:02:46;12.73;;;5.72;;
75930;SDS011;64609;47.052;15.462;2023-09-07T07:05:12;10.18;;;5.43;;
75930;SDS011;64609;47.052;15.462;2023-09-07T07:07:38;10.35;;;5.38;;
75930;SDS011;64609;47.052;15.462;2023-09-07T07:10:04;8.52;;;5.20;;
75930;SDS011;64609;47.052;15.462;2023-09-07T07:12:31;14.70;;;5.10;;
75930;SDS011;64609;47.052;15.462;2023-09-07T07:14:59;8.20;;;4.80;;
75930;SDS011;64609;47.052;15.462;2023-09-07T07:17:26;11.48;;;5.20;;
75930;SDS011;64609;47.052;15.462;2023-09-07T07:19:51;9.48;;;4.88;;
75930;SDS011;64609;47.052;15.462;2023-09-07T07:22:17;7.45;;;5.10;;
75930;SDS011;64609;47.052;15.462;2023-09-07T07:24:43;10.77;;;4.97;;
75930;SDS011;64609;47.052;15.462;2023-09-07T07:27:08;7.68;;;5.03;;
75930;SDS011;64609;47.052;15.462;2023-09-07T07:29:36;9.32;;;5.00;;
75930;SDS011;64609;47.052;15.462;2023-09-07T07:32:02;12.45;;;5.15;;
75930;SDS011;64609;47.052;15.462;2023-09-07T07:34:28;12.52;;;4.97;;
75930;SDS011;64609;47.052;15.462;2023-09-07T07:36:54;7.32;;;3.90;;
75930;SDS011;64609;47.052;15.462;2023-09-07T07:39:20;6.45;;;4.43;;
75930;SDS011;64609;47.052;15.462;2023-09-07T07:41:45;8.25;;;4.63;;
75930;SDS011;64609;47.052;15.462;2023-09-07T07:44:11;7.53;;;4.30;;
75930;SDS011;64609;47.052;15.462;2023-09-07T07:46:37;8.55;;;4.57;;
75930;SDS011;64609;47.052;15.462;2023-09-07T07:49:03;10.55;;;4.80;;
75930;SDS011;64609;47.052;15.462;2023-09-07T07:51:28;9.88;;;4.88;;
75930;SDS011;64609;47.052;15.462;2023-09-07T07:53:54;10.95;;;4.70;;
75930;SDS011;64609;47.052;15.462;2023-09-07T07:56:23;7.57;;;4.70;;
75930;SDS011;64609;47.052;15.462;2023-09-07T07:58:49;10.95;;;4.63;;
75930;SDS011;64609;47.052;15.462;2023-09-07T08:01:18;8.30;;;4.18;;
75930;SDS011;64609;47.052;15.462;2023-09-07T08:03:45;9.82;;;4.50;;
75930;SDS011;64609;47.052;15.462;2023-09-07T08:06:11;6.18;;;4.00;;
75930;SDS011;64609;47.052;15.462;2023-09-07T08:08:37;6.90;;;3.90;;
75930;SDS011;64609;47.052;15.462;2023-09-07T08:11:04;9.50;;;4.10;;
75930;SDS011;64609;47.052;15.462;2023-09-07T08:13:33;4.97;;;3.90;;
75930;SDS011;64609;47.052;15.462;2023-09-07T08:16:03;6.90;;;3.83;;
75930;SDS011;64609;47.052;15.462;2023-09-07T08:18:29;8.50;;;3.85;;
75930;SDS011;64609;47.052;15.462;2023-09-07T08:20:57;5.30;;;3.90;;
75930;SDS011;64609;47.052;15.462;2023-09-07T08:23:23;6.82;;;3.92;;
75930;SDS011;64609;47.052;15.462;2023-09-07T08:25:50;5.80;;;4.28;;
75930;SDS011;64609;47.052;15.462;2023-09-07T08:28:17;8.77;;;3.95;;
75930;SDS011;64609;47.052;15.462;2023-09-07T08:30:43;15.20;;;4.07;;
75930;SDS011;64609;47.052;15.462;2023-09-07T08:33:09;19.08;;;4.20;;
75930;SDS011;64609;47.052;15.462;2023-09-07T08:35:35;10.38;;;4.20;;
75930;SDS011;64609;47.052;15.462;2023-09-07T08:38:02;10.35;;;4.10;;
75930;SDS011;64609;47.052;15.462;2023-09-07T08:40:33;8.50;;;4.03;;
75930;SDS011;64609;47.052;15.462;2023-09-07T08:43:01;9.77;;;3.70;;
75930;SDS011;64609;47.052;15.462;2023-09-07T08:45:29;6.63;;;3.35;;
75930;SDS011;64609;47.052;15.462;2023-09-07T08:47:59;10.63;;;4.35;;
75930;SDS011;64609;47.052;15.462;2023-09-07T08:50:25;4.90;;;3.50;;
75930;SDS011;64609;47.052;15.462;2023-09-07T08:52:51;6.40;;;3.78;;
75930;SDS011;64609;47.052;15.462;2023-09-07T08:55:18;6.50;;;3.97;;
75930;SDS011;64609;47.052;15.462;2023-09-07T08:57:44;13.73;;;4.30;;
75930;SDS011;64609;47.052;15.462;2023-09-07T09:00:10;9.63;;;4.10;;
75930;SDS011;64609;47.052;15.462;2023-09-07T09:02:41;6.43;;;3.97;;
75930;SDS011;64609;47.052;15.462;2023-09-07T09:05:10;6.70;;;3.92;;
75930;SDS011;64609;47.052;15.462;2023-09-07T09:07:39;7.28;;;3.45;;
75930;SDS011;64609;47.052;15.462;2023-09-07T09:10:08;7.10;;;3.45;;
75930;SDS011;64609;47.052;15.462;2023-09-07T09:12:34;5.30;;;3.88;;
75930;SDS011;64609;47.052;15.462;2023-09-07T09:15:00;5.85;;;3.80;;
75930;SDS011;64609;47.052;15.462;2023-09-07T09:17:28;5.93;;;3.58;;
75930;SDS011;64609;47.052;15.462;2023-09-07T09:19:54;9.27;;;3.17;;
75930;SDS011;64609;47.052;15.462;2023-09-07T09:22:20;10.77;;;4.00;;
75930;SDS011;64609;47.052;15.462;2023-09-07T09:24:49;7.25;;;3.30;;
75930;SDS011;64609;47.052;15.462;2023-09-07T09:27:14;5.30;;;3.50;;
75930;SDS011;64609;47.052;15.462;2023-09-07T09:29:40;6.32;;;3.42;;
75930;SDS011;64609;47.052;15.462;2023-09-07T09:32:06;6.72;;;3.33;;
75930;SDS011;64609;47.052;15.462;2023-09-07T09:34:33;9.55;;;3.65;;
75930;SDS011;64609;47.052;15.462;2023-09-07T09:37:01;4.82;;;3.50;;
75930;SDS011;64609;47.052;15.462;2023-09-07T09:39:28;11.55;;;3.75;;
75930;SDS011;64609;47.052;15.462;2023-09-07T09:41:54;12.40;;;3.70;;
75930;SDS011;64609;47.052;15.462;2023-09-07T09:44:22;6.05;;;3.53;;
75930;SDS011;64609;47.052;15.462;2023-09-07T09:46:54;5.00;;;3.58;;
75930;SDS011;64609;47.052;15.462;2023-09-07T09:51:50;5.32;;;3.35;;
75930;SDS011;64609;47.052;15.462;2023-09-07T09:54:16;6.20;;;3.45;;
75930;SDS011;64609;47.052;15.462;2023-09-07T09:56:43;9.15;;;3.35;;
75930;SDS011;64609;47.052;15.462;2023-09-07T09:59:09;10.85;;;3.38;;
75930;SDS011;64609;47.052;15.462;2023-09-07T10:01:40;10.43;;;3.70;;
75930;SDS011;64609;47.052;15.462;2023-09-07T10:04:09;6.22;;;3.00;;
75930;SDS011;64609;47.052;15.462;2023-09-07T10:06:49;7.10;;;3.75;;
75930;SDS011;64609;47.052;15.462;2023-09-07T10:09:18;6.68;;;3.72;;
75930;SDS011;64609;47.052;15.462;2023-09-07T10:11:50;5.97;;;3.63;;
75930;SDS011;64609;47.052;15.462;2023-09-07T10:14:18;6.22;;;3.22;;
75930;SDS011;64609;47.052;15.462;2023-09-07T10:16:47;7.18;;;2.83;;
75930;SDS011;64609;47.052;15.462;2023-09-07T10:19:15;7.63;;;3.42;;
75930;SDS011;64609;47.052;15.462;2023-09-07T10:21:42;4.68;;;3.10;;
75930;SDS011;64609;47.052;15.462;2023-09-07T10:24:07;5.13;;;3.10;;
75930;SDS011;64609;47.052;15.462;2023-09-07T10:26:33;5.47;;;2.83;;
75930;SDS011;64609;47.052;15.462;2023-09-07T10:29:00;8.23;;;3.28;;
75930;SDS011;64609;47.052;15.462;2023-09-07T10:31:28;6.03;;;2.85;;
75930;SDS011;64609;47.052;15.462;2023-09-07T10:33:55;3.65;;;3.03;;
75930;SDS011;64609;47.052;15.462;2023-09-07T10:38:47;7.68;;;3.10;;
75930;SDS011;64609;47.052;15.462;2023-09-07T10:41:13;6.13;;;3.10;;
75930;SDS011;64609;47.052;15.462;2023-09-07T10:43:46;5.22;;;3.25;;
75930;SDS011;64609;47.052;15.462;2023-09-07T10:46:14;5.82;;;3.95;;
75930;SDS011;64609;47.052;15.462;2023-09-07T10:48:40;6.75;;;3.13;;
75930;SDS011;64609;47.052;15.462;2023-09-07T10:51:05;7.97;;;3.97;;
75930;SDS011;64609;47.052;15.462;2023-09-07T10:53:32;8.10;;;3.17;;
75930;SDS011;64609;47.052;15.462;2023-09-07T10:55:58;6.03;;;3.00;;
75930;SDS011;64609;47.052;15.462;2023-09-07T11:00:54;4.25;;;3.22;;
75930;SDS011;64609;47.052;15.462;2023-09-07T11:03:21;5.93;;;3.10;;
75930;SDS011;64609;47.052;15.462;2023-09-07T11:05:47;7.57;;;3.55;;
75930;SDS011;64609;47.052;15.462;2023-09-07T11:08:13;4.43;;;3.08;;
75930;SDS011;64609;47.052;15.462;2023-09-07T11:10:39;9.10;;;3.30;;
75930;SDS011;64609;47.052;15.462;2023-09-07T11:13:05;9.68;;;3.47;;
75930;SDS011;64609;47.052;15.462;2023-09-07T11:15:31;6.35;;;3.30;;
75930;SDS011;64609;47.052;15.462;2023-09-07T11:18:04;8.10;;;3.10;;
75930;SDS011;64609;47.052;15.462;2023-09-07T11:20:32;5.50;;;3.40;;
75930;SDS011;64609;47.052;15.462;2023-09-07T11:22:58;4.88;;;3.28;;
75930;SDS011;64609;47.052;15.462;2023-09-07T11:25:25;5.55;;;3.03;;
75930;SDS011;64609;47.052;15.462;2023-09-07T11:27:51;8.15;;;3.63;;
75930;SDS011;64609;47.052;15.462;2023-09-07T11:30:20;4.18;;;3.17;;
75930;SDS011;64609;47.052;15.462;2023-09-07T11:32:46;6.43;;;3.25;;
75930;SDS011;64609;47.052;15.462;2023-09-07T11:35:11;4.28;;;3.10;;
75930;SDS011;64609;47.052;15.462;2023-09-07T11:37:37;6.65;;;3.25;;
75930;SDS011;64609;47.052;15.462;2023-09-07T11:40:03;9.48;;;3.63;;
75930;SDS011;64609;47.052;15.462;2023-09-07T11:42:36;4.80;;;3.45;;
75930;SDS011;64609;47.052;15.462;2023-09-07T11:45:02;5.30;;;3.42;;
75930;SDS011;64609;47.052;15.462;2023-09-07T11:47:28;14.48;;;3.58;;
75930;SDS011;64609;47.052;15.462;2023-09-07T11:49:53;9.35;;;3.40;;
75930;SDS011;64609;47.052;15.462;2023-09-07T11:52:19;7.78;;;3.70;;
75930;SDS011;64609;47.052;15.462;2023-09-07T11:54:44;7.25;;;3.40;;
75930;SDS011;64609;47.052;15.462;2023-09-07T11:57:10;3.83;;;3.20;;
75930;SDS011;64609;47.052;15.462;2023-09-07T11:59:36;4.15;;;2.92;;
75930;SDS011;64609;47.052;15.462;2023-09-07T12:02:01;4.55;;;3.03;;
75930;SDS011;64609;47.052;15.462;2023-09-07T12:04:27;7.40;;;3.20;;
75930;SDS011;64609;47.052;15.462;2023-09-07T12:06:52;6.82;;;3.50;;
75930;SDS011;64609;47.052;15.462;2023-09-07T12:09:18;6.95;;;3.50;;
75930;SDS011;64609;47.052;15.462;2023-09-07T12:11:44;5.55;;;3.45;;
75930;SDS011;64609;47.052;15.462;2023-09-07T12:14:09;6.80;;;3.40;;
75930;SDS011;64609;47.052;15.462;2023-09-07T12:16:35;6.13;;;3.17;;
75930;SDS011;64609;47.052;15.462;2023-09-07T12:19:00;5.78;;;3.20;;
75930;SDS011;64609;47.052;15.462;2023-09-07T12:21:26;8.18;;;3.65;;
75930;SDS011;64609;47.052;15.462;2023-09-07T12:23:52;7.93;;;3.55;;
75930;SDS011;64609;47.052;15.462;2023-09-07T12:26:18;4.95;;;3.40;;
75930;SDS011;64609;47.052;15.462;2023-09-07T12:28:45;5.57;;;3.20;;
75930;SDS011;64609;47.052;15.462;2023-09-07T12:31:11;5.75;;;3.35;;
75930;SDS011;64609;47.052;15.462;2023-09-07T12:33:37;12.25;;;3.35;;
75930;SDS011;64609;47.052;15.462;2023-09-07T12:36:03;6.53;;;3.42;;
75930;SDS011;64609;47.052;15.462;2023-09-07T12:38:34;5.60;;;3.15;;
75930;SDS011;64609;47.052;15.462;2023-09-07T12:40:59;7.10;;;3.40;;
75930;SDS011;64609;47.052;15.462;2023-09-07T12:43:25;4.60;;;3.30;;
75930;SDS011;64609;47.052;15.462;2023-09-07T12:45:51;7.90;;;3.35;;
75930;SDS011;64609;47.052;15.462;2023-09-07T12:48:16;5.32;;;3.28;;
75930;SDS011;64609;47.052;15.462;2023-09-07T12:50:42;5.40;;;3.13;;
75930;SDS011;64609;47.052;15.462;2023-09-07T12:53:10;5.65;;;3.10;;
75930;SDS011;64609;47.052;15.462;2023-09-07T12:55:36;6.38;;;3.00;;
75930;SDS011;64609;47.052;15.462;2023-09-07T12:58:02;7.43;;;3.55;;
75930;SDS011;64609;47.052;15.462;2023-09-07T13:00:27;4.78;;;3.25;;
75930;SDS011;64609;47.052;15.462;2023-09-07T13:02:56;6.28;;;3.05;;
75930;SDS011;64609;47.052;15.462;2023-09-07T13:05:21;9.55;;;3.50;;
75930;SDS011;64609;47.052;15.462;2023-09-07T13:07:47;4.85;;;3.28;;
75930;SDS011;64609;47.052;15.462;2023-09-07T13:10:13;4.78;;;3.03;;
75930;SDS011;64609;47.052;15.462;2023-09-07T13:12:39;3.60;;;2.88;;
75930;SDS011;64609;47.052;15.462;2023-09-07T13:15:06;4.85;;;3.47;;
75930;SDS011;64609;47.052;15.462;2023-09-07T13:17:32;3.55;;;3.17;;
75930;SDS011;64609;47.052;15.462;2023-09-07T13:19:58;4.00;;;3.22;;
75930;SDS011;64609;47.052;15.462;2023-09-07T13:22:24;8.50;;;3.70;;
75930;SDS011;64609;47.052;15.462;2023-09-07T13:24:49;4.97;;;3.20;;
75930;SDS011;64609;47.052;15.462;2023-09-07T13:27:15;4.95;;;3.55;;
75930;SDS011;64609;47.052;15.462;2023-09-07T13:29:41;5.32;;;3.47;;
75930;SDS011;64609;47.052;15.462;2023-09-07T13:32:07;6.80;;;3.40;;
75930;SDS011;64609;47.052;15.462;2023-09-07T13:34:33;6.53;;;3.15;;
75930;SDS011;64609;47.052;15.462;2023-09-07T13:36:58;3.65;;;3.03;;
75930;SDS011;64609;47.052;15.462;2023-09-07T13:39:24;4.38;;;3.20;;
75930;SDS011;64609;47.052;15.462;2023-09-07T13:41:50;8.63;;;3.42;;
75930;SDS011;64609;47.052;15.462;2023-09-07T13:44:16;6.72;;;3.30;;
75930;SDS011;64609;47.052;15.462;2023-09-07T13:46:42;8.32;;;3.63;;
75930;SDS011;64609;47.052;15.462;2023-09-07T13:49:09;6.28;;;3.50;;
75930;SDS011;64609;47.052;15.462;2023-09-07T13:51:35;6.97;;;3.25;;
75930;SDS011;64609;47.052;15.462;2023-09-07T13:54:04;5.88;;;3.33;;
75930;SDS011;64609;47.052;15.462;2023-09-07T13:56:30;8.40;;;3.78;;
75930;SDS011;64609;47.052;15.462;2023-09-07T13:58:56;7.30;;;3.53;;
75930;SDS011;64609;47.052;15.462;2023-09-07T14:01:21;7.93;;;3.45;;
75930;SDS011;64609;47.052;15.462;2023-09-07T14:03:48;6.13;;;3.22;;
75930;SDS011;64609;47.052;15.462;2023-09-07T14:06:14;4.28;;;3.30;;
75930;SDS011;64609;47.052;15.462;2023-09-07T14:08:40;4.78;;;3.28;;
75930;SDS011;64609;47.052;15.462;2023-09-07T14:11:05;6.32;;;3.53;;
75930;SDS011;64609;47.052;15.462;2023-09-07T14:13:31;5.53;;;3.20;;
75930;SDS011;64609;47.052;15.462;2023-09-07T14:16:00;4.43;;;3.33;;
75930;SDS011;64609;47.052;15.462;2023-09-07T14:18:26;4.63;;;3.35;;
75930;SDS011;64609;47.052;15.462;2023-09-07T14:20:52;7.25;;;3.35;;
75930;SDS011;64609;47.052;15.462;2023-09-07T14:23:18;5.90;;;3.55;;
75930;SDS011;64609;47.052;15.462;2023-09-07T14:25:46;4.65;;;3.20;;
75930;SDS011;64609;47.052;15.462;2023-09-07T14:28:12;5.80;;;3.30;;
75930;SDS011;64609;47.052;15.462;2023-09-07T14:30:38;4.30;;;3.28;;
75930;SDS011;64609;47.052;15.462;2023-09-07T14:33:04;4.65;;;3.45;;